Hiroki Sakai

Chefscout - Sanfrecce Hiroshima
22 Feb 2028
Dienstag
Verarbeitung

Persönlichkeit

Anpassungsfähigkeit (1) Ehrgeiz (10) Kontroverse (11) Loyalität (12) Druck (10) Professionalität (14) Fairness (19) Temperament (7)

Profil

Trainerstil Demokratisch
Lizenz Kontinentale B
Entschlossenheit 12
Menschenführung 6
Motivation 12
Disziplin 12
Arbeitszufriedenheit
100%
Ermüdung
0%
Rolle Chefscout
Gehalt 29.3K p/W
Vertrag 14.03.2028

Leistung

Verhalten Gut
Trainingseffektivität
41%
Spielerentwicklung
45%
Verletzungsprävention
60%
Taktische Umsetzung
45%

Letzte Ereignisse

Vertragsverhandlung begonnen jetzt
Nahm an einer Scouting-Besprechung teil jetzt
Nahm an einer Scouting-Besprechung teil jetzt
Vertragsverhandlung begonnen 7T her
Vertragsverhandlung begonnen 7T her
Vertragsverhandlung begonnen 7T her
Vertragsverhandlung begonnen 7T her
Vertragsverhandlung begonnen 7T her

Aktuell beobachtet

200
Spieler Verein Status Fähigkeit Vertrauen Beobachtet Zuletzt beobachtet Letzte Stimme
Víctor Guzmán Sporting CP Aktiv 100 / 113 40% 1 07.02.2028 -
Nicolás Azambuja Cádiz Aktiv 116 / 136 40% 1 07.02.2028 -
Jake Evans Colchester United Verhandlung 115 / 114 40% 1 07.02.2028 -
Kauã Moraes Cruzeiro Aktiv 131 / 133 40% 6 24.01.2028 -
Jofre Torrents Ajax Aktiv 134 / 138 40% 3 24.01.2028 -
Ernie Weaver AFC Wimbledon Aktiv 117 / 116 40% 5 19.01.2028 -
Christos Mouzakitis Hull City Aktiv 141 / 142 40% 5 19.01.2028 -
Jaydee Canvot AJ Auxerre Aktiv 143 / 150 40% 1 19.01.2028 -
Thomas Glover Omiya Ardija Verloren 115 / 126 69% 1 17.01.2028 Befürworten
Trey Nyoni Rotherham United Aktiv 137 / 144 40% 5 08.01.2028 -
Joel McGregor Swindon Town Verhandlung 103 / 101 40% 1 08.01.2028 -
Esquerdinha Shrewsbury Town Aktiv 121 / 123 40% 1 08.01.2028 -
Caleb Yirenkyi Coventry City Aktiv 136 / 142 40% 4 05.01.2028 -
Juan Camilo Córdoba Deportivo Pereira Aktiv 80 / 102 40% 5 04.01.2028 -
Tiago Gordillo San Miguel Aktiv 81 / 90 40% 4 04.01.2028 -
David Valencia Alianza Petrolera Verhandlung 122 / 135 40% 4 03.01.2028 -
Mikkel Hope Haugesund Aktiv 113 / 110 40% 8 03.01.2028 -
Héctor Fort Real Sociedad Aktiv 138 / 148 40% 2 03.01.2028 -
Ronan Kpakio Cardiff City Aktiv 122 / 122 40% 3 03.01.2028 -
Luis Vidal Deportivo Pereira Aktiv 83 / 96 40% 2 03.01.2028 -
Cheveyo Tsawa Club Brugge Aktiv 121 / 122 40% 1 03.01.2028 -
Hervin Goyes Deportivo Pasto Aktiv 113 / 114 40% 4 31.12.2027 -
Luighi Palmeiras Aktiv 118 / 116 40% 2 31.12.2027 -
Joel Ezra Enyimba Aktiv 106 / 106 40% 8 30.12.2027 -
Mikhail Alexandrov Dinamo Brest Aktiv 82 / 98 40% 3 30.12.2027 -
Mateo Peralta Danubio Aktiv 106 / 119 40% 4 29.12.2027 -
Gabriel Mec Porto Aktiv 118 / 135 40% 1 29.12.2027 -
Kauã Elias Anderlecht Aktiv 143 / 135 40% 3 27.12.2027 -
Jayden Danns Wigan Athletic Aktiv 143 / 143 40% 2 27.12.2027 -
Santiago López Independiente Aktiv 120 / 133 40% 1 27.12.2027 -
Themba Dala Ajax Cape Town Aktiv 126 / 131 40% 2 26.12.2027 -
Dani Díaz Real Sociedad Aktiv 113 / 118 40% 1 26.12.2027 -
Bryan Caicedo Leones Aktiv 94 / 98 40% 3 25.12.2027 -
Zakhar Chushkin Spartak Moscow Aktiv 87 / 83 40% 1 25.12.2027 -
Dmitry Pestryakov Dinamo Moscow Aktiv 108 / 119 40% 3 21.12.2027 -
Prince Amoako FC Copenhagen Aktiv 132 / 137 40% 1 21.12.2027 -
Gonçalo Moreira Benfica Aktiv 116 / 123 40% 1 21.12.2027 -
Sebastián Ramírez Jaguares Aktiv 107 / 114 40% 4 19.12.2027 -
Shea Lacey Wolverhampton Aktiv 135 / 140 40% 1 19.12.2027 -
Gianluca Prestianni Benfica Aktiv 135 / 141 40% 1 19.12.2027 -
Matías Lozano Deportivo Pasto Aktiv 104 / 119 40% 6 18.12.2027 -
Facundo Martínez Montevideo City Torque Aktiv 91 / 99 40% 2 18.12.2027 -
Tomás Aranda Boca Juniors Aktiv 123 / 117 40% 6 16.12.2027 -
Musa Malik Ikorodu City Aktiv 104 / 104 40% 2 16.12.2027 -
Oscar Schwartau Norwich City Aktiv 132 / 133 40% 1 15.12.2027 -
Ben Broggio Grimsby Town Aktiv 114 / 117 40% 1 14.12.2027 -
Joel Medina Independiente Aktiv 118 / 115 40% 2 12.12.2027 -
Imran Musa Atvidaberg Aktiv 85 / 99 40% 2 12.12.2027 -
Aarón Ochoa Málaga Aktiv 114 / 125 40% 1 12.12.2027 -
Ayden Heaven Luton Town Aktiv 153 / 151 40% 2 10.12.2027 -
Alejandro Almaraz Nueva Chicago Aktiv 114 / 110 40% 4 10.12.2027 -
Chinedu Nwosu Bendel Insurance Aktiv 88 / 84 40% 2 10.12.2027 -
Dylan Cabral Arsenal Aktiv 104 / 111 40% 2 08.12.2027 -
Mauro Carrizo Atlético Tucumán Aktiv 113 / 117 40% 2 08.12.2027 -
Maren Kefas Plateau United Aktiv 101 / 99 40% 2 08.12.2027 -
Franco Minerva Platense Aktiv 128 / 115 40% 3 05.12.2027 -
Kerim Alajbegović Modena Aktiv 131 / 129 40% 1 04.12.2027 -
Chimobi Igwilo Rangers International Aktiv 97 / 90 40% 3 03.12.2027 -
Mads Bomholt Stabaek Aktiv 101 / 113 40% 3 03.12.2027 -
Igor Tyjon Doncaster Rovers Aktiv 109 / 123 40% 2 03.12.2027 -
Ilja Ivarlak Spartak Moscow Aktiv 82 / 101 40% 1 30.11.2027 -
Cristian Florez Cortulua Aktiv 104 / 112 40% 3 29.11.2027 -
Sheldon Dinesh Tranmere Rovers Aktiv 95 / 112 40% 1 27.11.2027 -
Josh Nichols Tranmere Rovers Aktiv 127 / 126 40% 3 26.11.2027 -
Lander Astiazarán Real Sociedad Aktiv 111 / 120 40% 1 26.11.2027 -
Jumpei Hayakawa Urawa Reds Aktiv 89 / 90 40% 3 24.11.2027 -
Diogo Guzmán Montevideo City Torque Aktiv 123 / 115 40% 3 23.11.2027 -
Abdulrahman Hamisu Niger Tornadoes Aktiv 87 / 88 40% 1 23.11.2027 -
Felipe Obradovich Ferro Carril Oeste Aktiv 109 / 115 40% 2 22.11.2027 -
Olivier Mambwa Young Boys Aktiv 104 / 117 40% 1 22.11.2027 -
Olívio Tomé Benfica Aktiv 113 / 123 40% 1 17.11.2027 -
Cristian Guzmán Universitario Popayan Aktiv 84 / 101 40% 2 16.11.2027 -
Harrison Armstrong Everton Aktiv 128 / 137 40% 1 16.11.2027 -
Theodor Lundbergh Malmo FF Aktiv 95 / 95 40% 1 15.11.2027 -
Ryan Kavuma-McQueen Accrington Stanley Aktiv 120 / 133 40% 1 13.11.2027 -
Mfundo Vilakazi Kaizer Chiefs Aktiv 112 / 123 40% 1 13.11.2027 -
Jovan Milosavljević Kalmar FF Aktiv 90 / 116 40% 1 13.11.2027 -
Zannetos Savva Albirex Niigata Aktiv 93 / 99 40% 1 11.11.2027 -
Oliver Hagen Djurgarden Aktiv 98 / 113 40% 1 11.11.2027 -
Ángel Aguayo Sol de America Aktiv 105 / 93 40% 2 10.11.2027 -
Santino Carrizo Chacarita Juniors Aktiv 85 / 100 40% 1 10.11.2027 -
Yiandro Raap Ilves Aktiv 105 / 96 40% 1 10.11.2027 -
Nika Kvaratskhelia Tskhinvali Aktiv 90 / 106 40% 1 07.11.2027 -
Bahia Criciuma Aktiv 111 / 112 40% 1 07.11.2027 -
Olaniyi Saheed Kwara United Aktiv 107 / 92 40% 1 07.11.2027 -
Oscar Otero Atletico Venezuela Aktiv 112 / 99 40% 2 03.11.2027 -
Kevin Angulo America de Cali Aktiv 110 / 106 40% 1 03.11.2027 -
Hassan Beja AFC Leopards Aktiv 94 / 94 40% 2 02.11.2027 -
Lucas Camejo River Plate Aktiv 81 / 80 40% 3 01.11.2027 -
Lukas Gausdal IK Start Aktiv 103 / 104 40% 1 01.11.2027 -
Ryan McAidoo Gillingham Aktiv 126 / 137 40% 1 01.11.2027 -
Matías Canedo Rampla Juniors Aktiv 84 / 94 40% 1 31.10.2027 -
Clement Bischoff Red Bull Salzburg Aktiv 126 / 130 40% 2 30.10.2027 -
Demian Rea Banfield Aktiv 99 / 103 40% 1 30.10.2027 -
Lion Beqiri Falkenberg Aktiv 86 / 111 40% 1 28.10.2027 -
Marvin Illary Helsingborg Aktiv 92 / 82 40% 1 27.10.2027 -
Tiziano Cabrera Central Norte Aktiv 93 / 97 40% 1 25.10.2027 -
Cundo Leicester City Aktiv 138 / 141 40% 1 24.10.2027 -
Juan Rodríguez Wanderers Aktiv 97 / 110 40% 1 17.10.2027 -
Giovanni Baroni Talleres Aktiv 110 / 130 40% 1 12.10.2027 -
Emiliano Zambrano Gimnasia y Esgrima Aktiv 99 / 94 40% 1 12.10.2027 -
Mustapha Umar Kano Pillars Aktiv 93 / 87 40% 1 06.10.2027 -
Malick Yalcouyé Brighton Aktiv 127 / 138 40% 1 27.09.2027 -
Gift Udoh Ikorodu City Aktiv 87 / 97 40% 1 25.09.2027 -
Muminhon Bahodirxonov Neftchi Aktiv 80 / 89 40% 1 25.09.2027 -
Mpho Khethang AS Police Aktiv 79 / 88 40% 2 23.09.2027 -
José Correa Deportivo Tachira Aktiv 85 / 87 40% 1 20.09.2027 -
Ricky Atletico Venezuela Aktiv 91 / 93 40% 1 20.09.2027 -
Marvelous Freedom Ikorodu City Aktiv 92 / 104 40% 1 20.09.2027 -
Godwin Oham Warri Wolves Aktiv 100 / 84 40% 1 16.09.2027 -
Archie Gray Derby County Aktiv 147 / 147 40% 1 16.09.2027 -
José Cavadia Aguilas Doradas Aktiv 97 / 120 40% 1 15.09.2027 -
Eliás Montiel Werder Bremen Aktiv 135 / 139 40% 1 15.09.2027 -
Hosea Michael Remo Stars Aktiv 86 / 101 40% 1 15.09.2027 -
Issa Yusuf Shooting Stars Aktiv 87 / 101 40% 2 11.09.2027 -
Chibueze Oputa Rangers International Aktiv 98 / 101 40% 3 10.09.2027 -
Juan Morán Godoy Cruz Aktiv 101 / 105 40% 1 10.09.2027 -
Agustín Medina Valencia Aktiv 123 / 121 40% 1 09.09.2027 -
Jorge Salinas Racing Santander Aktiv 121 / 133 40% 1 09.09.2027 -
Nazareno Roselli Defensa y Justicia Aktiv 118 / 121 40% 1 08.09.2027 -
Ulises Giménez River Plate Aktiv 109 / 118 40% 1 07.09.2027 -
Izan Merino Málaga Aktiv 128 / 129 40% 1 06.09.2027 -
Adam Bakoune Ospitaletto Aktiv 103 / 112 40% 1 16.08.2027 -
Juan Diego Perdomo Depor Aktiv 95 / 81 40% 1 16.08.2027 -
Pablo Solari Galatasaray Verloren 128 / 128 68% 1 22.07.2027 Befürworten
Khama Dolly Utrecht Verhandlung 123 / 124 67% 1 22.07.2027 Befürworten
Oleh Ocheretko Austin FC Verhandlung 129 / 131 67% 1 22.07.2027 -
Daniel Karlsbakk Sarpsborg 08 Verloren 124 / 126 66% 1 22.07.2027 -
Finley McAllister Grimsby Town Aktiv 99 / 95 40% 1 21.07.2027 -
Gonçalo Oliveira Benfica Aktiv 121 / 122 40% 1 21.07.2027 -
Dylan Lawlor Cardiff City Aktiv 114 / 120 40% 2 20.07.2027 -
Toni Tamarit Alverca Aktiv 119 / 129 40% 1 20.07.2027 -
Kazunari Kita Real Sociedad Aktiv 97 / 101 40% 1 20.07.2027 -
Darryl Bakola Padova Aktiv 114 / 120 40% 1 19.07.2027 -
Marco Oroná Antofagasta Aktiv 90 / 110 40% 1 19.07.2027 -
Jan Bürger Gillingham Aktiv 114 / 119 40% 1 14.07.2027 -
Daniel Dennis Ikorodu City Aktiv 83 / 89 40% 1 14.07.2027 -
Rivaldo Grobler Free State Stars Aktiv 89 / 112 40% 1 14.07.2027 -
Riley Owen Trento Aktiv 109 / 116 40% 3 13.07.2027 -
Vasilije Novičić IMT Aktiv 108 / 118 40% 1 13.07.2027 -
Gadiel Paoli River Plate Aktiv 91 / 99 40% 1 12.07.2027 -
Christ Inao Oulaï Fiorentina Aktiv 136 / 137 40% 1 08.07.2027 -
Denys Smetana Nyva Aktiv 105 / 104 40% 1 06.07.2027 -
Zaïd BafdilI Sporting CP Aktiv 96 / 106 40% 1 06.07.2027 -
Matvey Kislyak CSKA Moscow Aktiv 127 / 135 40% 1 08.02.2027 -
Davide Bartesaghi AC Milan Aktiv 122 / 135 40% 1 08.02.2027 -
Tyler Fredricson Oldham Athletic Aktiv 101 / 104 40% 1 26.01.2027 -
Kasey McAteer Ipswich Town Aktiv 133 / 128 40% 2 20.01.2027 -
Hamish Douglas Grimsby Town Aktiv 96 / 93 40% 1 20.01.2027 -
Finn Azaz Southampton Aktiv 123 / 132 40% 1 20.01.2027 -
David Turnbull Cardiff City Aktiv 128 / 111 40% 1 20.01.2027 -
Lewis Morgan SuperSport United Verloren 126 / 126 67% 1 05.01.2027 -
Petar Stanić Ludogorets Aktiv 140 / 137 40% 4 03.01.2027 -
Tom Fellows Southampton Aktiv 129 / 127 40% 3 03.01.2027 -
Marcelo Allende Mamelodi Sundowns Aktiv 135 / 126 40% 3 02.01.2027 -
Derensili Sanches Fernandes Huddersfield Town Aktiv 133 / 124 40% 2 02.01.2027 -
Welington Southampton Aktiv 132 / 134 40% 3 01.01.2027 -
Kwadwo Baah Watford Aktiv 125 / 126 40% 1 01.01.2027 -
Stanley Mills Oxford United Aktiv 126 / 120 40% 1 01.01.2027 -
Othmane Maamma Watford Aktiv 124 / 132 40% 1 29.12.2026 -
Reda Khadra Qarabag Aktiv 121 / 125 40% 4 28.12.2026 -
Oswin Appollis Orlando Pirates Aktiv 117 / 113 40% 1 26.12.2026 -
Morgan Whittaker Middlesbrough Aktiv 132 / 135 40% 2 23.12.2026 -
Ilyas Ansah Hull City Aktiv 124 / 129 40% 2 23.12.2026 -
Scott Twine Bristol City Aktiv 129 / 127 40% 2 22.12.2026 -
Aidan Morris Middlesbrough Aktiv 137 / 133 40% 1 22.12.2026 -
Joe Gelhardt Hull City Aktiv 129 / 131 40% 1 21.12.2026 -
Luciano Gondou CSKA Moscow Aktiv 140 / 127 40% 1 21.12.2026 -
Derry Murkin Derby County Aktiv 129 / 124 40% 1 21.12.2026 -
Sayfallah Ltaief Cracovia Aktiv 115 / 131 40% 4 20.12.2026 Beobachten
Rodrigo Huescas FC Copenhagen Aktiv 125 / 138 40% 1 15.12.2026 -
Christian Krasnodar Aktiv 124 / 128 40% 3 14.12.2026 -
Bamba Dieng Crvena Zvezda Aktiv 141 / 134 40% 3 14.12.2026 -
Toby Collyer West Bromwich Albion Aktiv 126 / 127 40% 2 13.12.2026 -
Oliver Skipp Leicester City Aktiv 126 / 129 40% 1 12.12.2026 -
Lukáš Červ Viktoria Plzen Aktiv 128 / 129 40% 1 10.12.2026 -
Tommy Conway Middlesbrough Aktiv 131 / 134 40% 1 08.12.2026 -
Tomáš Rigo Stoke City Aktiv 129 / 133 40% 1 07.12.2026 -
Armando Broja Burnley Aktiv 136 / 128 40% 1 06.12.2026 -
Joaquín Gho Argentinos Juniors Aktiv 134 / 114 40% 1 04.12.2026 -
Suleiman Camara Slovan Bratislava Aktiv 130 / 111 40% 2 01.12.2026 -
Richard Koné Queens Park Rangers Aktiv 121 / 127 40% 1 01.12.2026 -
Ethan Galbraith Swansea City Aktiv 137 / 130 40% 1 29.11.2026 -
Kristoffer Lund Birmingham Aktiv 133 / 124 40% 2 25.11.2026 -
Sorba Thomas Stoke City Aktiv 136 / 121 40% 1 24.11.2026 -
Jack Rudoni Coventry City Aktiv 128 / 129 40% 1 23.11.2026 -
Kwame Poku Queens Park Rangers Aktiv 116 / 127 40% 1 22.11.2026 -
Alan Lescano Argentinos Juniors Aktiv 129 / 121 40% 2 20.11.2026 -
Mayckel Lahdo Malmo FF Aktiv 126 / 134 40% 1 17.11.2026 Mehr Infos nötig
Sead Hakšabanović Malmo FF Aktiv 128 / 124 40% 1 16.11.2026 Mehr Infos nötig
Daiya Tono Yokohama F. Marinos Aktiv 128 / 120 40% 2 10.11.2026 -
Riku Yamane Yokohama F. Marinos Aktiv 138 / 138 40% 1 10.11.2026 -
Alex Luna Instituto Aktiv 139 / 138 40% 1 08.11.2026 -
Erison Kawasaki Frontale Aktiv 134 / 133 40% 1 07.11.2026 -
Ramiro Ruiz Rodríguez Atlético Tucumán Aktiv 129 / 113 40% 1 03.11.2026 -
Imanol Machuca Independiente Aktiv 134 / 113 40% 1 03.11.2026 -
David Miculescu FCSB Aktiv 117 / 114 40% 1 02.11.2026 -
Antonio Galeano Remo Stars Aktiv 125 / 130 40% 1 02.11.2026 -
Ramiro Centurión San Lorenzo Aktiv 102 / 100 40% 1 03.08.2026 -
Borja Mayoral Getafe Aktiv 141 / 149 40% 1 02.08.2026 -